createdAt,value
2023-04-13T00:01:34.942Z,99413.28
2023-04-13T00:04:38.653Z,99404.59
2023-04-13T00:07:43.644Z,99420.59
2023-04-13T00:10:46.703Z,99418.25
2023-04-13T00:13:53.438Z,99404.13
2023-04-13T00:16:56.681Z,99407.16
2023-04-13T00:19:59.711Z,99423.25
2023-04-13T00:23:03.021Z,99406.09
2023-04-13T00:26:06.803Z,99405.66
2023-04-13T00:29:11.672Z,99408.84
2023-04-13T00:32:17.632Z,99404.84
2023-04-13T00:35:25.248Z,99408.34
2023-04-13T00:38:29.869Z,99398.97
2023-04-13T00:41:33.174Z,99404.53
2023-04-13T00:44:37.773Z,99428.94
2023-04-13T00:47:46.605Z,99426.03
2023-04-13T00:50:49.883Z,99442.91
2023-04-13T00:53:53.087Z,99452.03
2023-04-13T00:56:57.121Z,99445.78
2023-04-13T01:00:06.449Z,99459.72
2023-04-13T01:03:10.879Z,99471.94
2023-04-13T01:06:21.148Z,99475.97
2023-04-13T01:09:33.148Z,99472.69
2023-04-13T01:12:48.145Z,99493.09
2023-04-13T01:16:03.894Z,99498.63
2023-04-13T01:19:18.565Z,99495.28
2023-04-13T01:22:25.765Z,99470.22
2023-04-13T01:25:40.717Z,99482.88
2023-04-13T01:28:47.436Z,99503.78
2023-04-13T01:31:53.795Z,99498.31
2023-04-13T01:34:57.211Z,99513.44
2023-04-13T01:38:00.802Z,99537.72
2023-04-13T01:41:07.055Z,99540.22
2023-04-13T01:44:13.692Z,99526.16
2023-04-13T01:47:21.408Z,99530.66
2023-04-13T01:50:35.358Z,99545.41
2023-04-13T01:53:54.892Z,99540.31
2023-04-13T01:57:00.263Z,99547.16
2023-04-13T02:00:12.678Z,99549.06
2023-04-13T02:03:22.596Z,99560.75
2023-04-13T02:06:25.947Z,99571.59
2023-04-13T02:09:29.346Z,99569.34
2023-04-13T02:12:33.025Z,99573.94
2023-04-13T02:15:39.040Z,99580.69
2023-04-13T02:18:42.350Z,99580.09
2023-04-13T02:21:47.812Z,99581.03
2023-04-13T02:24:52.425Z,99582.69
2023-04-13T02:27:55.814Z,99586.13
2023-04-13T02:31:03.310Z,99578.13
2023-04-13T02:34:06.349Z,99580.94
2023-04-13T02:37:11.327Z,99582.81
2023-04-13T02:40:18.037Z,99585.16
2023-04-13T02:43:22.117Z,99587.66
2023-04-13T02:46:26.662Z,99596.00
2023-04-13T02:49:41.359Z,99594.00
2023-04-13T02:53:03.514Z,99587.66
2023-04-13T02:56:09.582Z,99591.97
2023-04-13T02:59:14.608Z,99598.09
2023-04-13T03:02:21.510Z,99601.97
2023-04-13T03:05:25.109Z,99600.69
2023-04-13T03:08:28.474Z,99594.13
2023-04-13T03:11:42.405Z,99610.69
2023-04-13T03:14:49.756Z,99614.84
2023-04-13T03:18:00.507Z,99616.81
2023-04-13T03:21:06.226Z,99623.84
2023-04-13T03:24:15.515Z,99632.34
2023-04-13T03:27:20.971Z,99641.25
2023-04-13T03:30:25.846Z,99633.84
2023-04-13T03:33:34.698Z,99624.41
2023-04-13T03:36:39.756Z,99629.34
2023-04-13T03:39:43.089Z,99625.81
2023-04-13T03:42:50.647Z,99628.94
2023-04-13T03:45:57.342Z,99633.09
2023-04-13T03:49:02.107Z,99633.31
2023-04-13T03:52:05.720Z,99634.63
2023-04-13T03:55:14.207Z,99638.28
2023-04-13T03:58:22.127Z,99651.91
2023-04-13T04:01:29.096Z,99652.28
2023-04-13T04:04:36.310Z,99659.97
2023-04-13T04:07:39.496Z,99665.16
2023-04-13T04:10:43.561Z,99662.28
2023-04-13T04:13:52.502Z,99665.19
2023-04-13T04:16:55.823Z,99671.47
2023-04-13T04:20:01.014Z,99688.78
2023-04-13T04:23:05.236Z,99687.13
2023-04-13T04:26:17.979Z,99692.84
2023-04-13T04:29:37.496Z,99696.38
2023-04-13T04:33:04.313Z,99696.63
2023-04-13T04:36:16.265Z,99710.81
2023-04-13T04:39:32.877Z,99713.72
2023-04-13T04:42:45.616Z,99720.56
2023-04-13T04:45:59.009Z,99733.00
2023-04-13T04:49:03.487Z,99728.44
2023-04-13T04:52:12.301Z,99712.69
2023-04-13T04:55:16.696Z,99713.06
2023-04-13T04:58:22.266Z,99706.13
2023-04-13T05:01:29.801Z,99709.56
2023-04-13T05:04:42.179Z,99709.75
2023-04-13T05:07:47.183Z,99711.22
2023-04-13T05:10:51.305Z,99716.59
2023-04-13T05:13:56.855Z,99710.81
2023-04-13T05:17:02.246Z,99708.81
2023-04-13T05:20:13.838Z,99718.22
2023-04-13T05:23:32.381Z,99735.44
2023-04-13T05:26:43.145Z,99733.25
2023-04-13T05:29:49.401Z,99730.31
2023-04-13T05:33:06.024Z,99734.56
2023-04-13T05:36:10.847Z,99732.22
2023-04-13T05:39:17.614Z,99740.94
2023-04-13T05:42:21.362Z,99745.91
2023-04-13T05:45:24.762Z,99748.00
2023-04-13T05:48:39.472Z,99754.84
2023-04-13T05:51:44.723Z,99743.66
2023-04-13T05:54:49.945Z,99761.53
2023-04-13T05:57:57.716Z,99767.22
2023-04-13T06:01:01.641Z,99762.66
2023-04-13T06:04:09.557Z,99764.47
2023-04-13T06:07:21.287Z,99774.19
2023-04-13T06:10:26.635Z,99785.00
2023-04-13T06:13:29.684Z,99785.38
2023-04-13T06:16:32.734Z,99793.38
2023-04-13T06:19:37.317Z,99796.34
2023-04-13T06:22:41.839Z,99788.25
2023-04-13T06:25:46.606Z,99795.44
2023-04-13T06:28:53.225Z,99794.38
2023-04-13T06:31:57.065Z,99804.97
2023-04-13T06:35:03.221Z,99805.81
2023-04-13T06:38:11.898Z,99809.31
2023-04-13T06:41:29.812Z,99828.41
2023-04-13T06:44:48.819Z,99827.63
2023-04-13T06:47:53.948Z,99838.69
2023-04-13T06:50:59.091Z,99835.94
2023-04-13T06:54:03.855Z,99848.69
2023-04-13T06:57:08.586Z,99853.28
2023-04-13T07:00:28.810Z,99867.09
2023-04-13T07:03:34.016Z,99867.19
2023-04-13T07:06:38.126Z,99875.34
2023-04-13T07:09:43.641Z,99869.00
2023-04-13T07:12:48.295Z,99871.03
2023-04-13T07:15:52.681Z,99864.03
2023-04-13T07:18:55.821Z,99862.03
2023-04-13T07:21:59.357Z,99871.22
2023-04-13T07:25:03.046Z,99868.75
2023-04-13T07:28:08.051Z,99877.94
2023-04-13T07:31:12.015Z,99873.38
2023-04-13T07:34:17.364Z,99869.84
2023-04-13T07:37:22.700Z,99876.94
2023-04-13T07:40:26.097Z,99878.00
2023-04-13T07:43:35.253Z,99899.13
2023-04-13T07:46:43.025Z,99903.72
2023-04-13T07:49:46.304Z,99898.66
2023-04-13T07:52:53.645Z,99904.34
2023-04-13T07:55:59.225Z,99899.84
2023-04-13T07:59:06.534Z,99903.06
2023-04-13T08:02:12.426Z,99905.41
2023-04-13T08:05:18.208Z,99910.97
2023-04-13T08:08:21.664Z,99909.78
2023-04-13T08:11:27.050Z,99918.50
2023-04-13T08:14:39.622Z,99926.31
2023-04-13T08:17:42.897Z,99929.63
2023-04-13T08:20:46.813Z,99929.13
2023-04-13T08:23:51.647Z,99930.31
2023-04-13T08:26:58.078Z,99939.50
2023-04-13T08:30:03.810Z,99952.47
2023-04-13T08:33:17.625Z,99954.00
2023-04-13T08:36:20.714Z,99955.56
2023-04-13T08:39:29.542Z,99960.38
2023-04-13T08:42:33.121Z,99955.97
2023-04-13T08:45:37.686Z,99951.44
2023-04-13T08:48:53.462Z,99950.50
2023-04-13T08:52:00.618Z,99956.91
2023-04-13T08:55:05.913Z,99957.66
2023-04-13T08:58:14.747Z,99960.81
2023-04-13T09:01:20.786Z,99961.03
2023-04-13T09:04:33.141Z,99956.16
2023-04-13T09:07:38.737Z,99951.50
2023-04-13T09:10:48.124Z,99942.06
2023-04-13T09:13:51.856Z,99953.13
2023-04-13T09:16:59.218Z,99951.34
2023-04-13T09:20:22.149Z,99960.56
2023-04-13T09:23:25.938Z,99970.00
2023-04-13T09:26:29.053Z,99961.09
2023-04-13T09:29:34.630Z,99965.88
2023-04-13T09:32:38.952Z,99970.19
2023-04-13T09:35:45.500Z,99974.06
2023-04-13T09:38:53.504Z,99973.50
2023-04-13T09:41:56.645Z,99971.97
2023-04-13T09:45:00.239Z,99968.22
2023-04-13T09:48:05.663Z,99962.00
2023-04-13T09:51:09.812Z,99970.84
2023-04-13T09:54:12.944Z,99961.34
2023-04-13T09:57:25.730Z,99963.81
2023-04-13T10:00:30.082Z,99962.69
2023-04-13T10:03:36.162Z,99963.13
2023-04-13T10:06:40.694Z,99964.63
2023-04-13T10:09:44.171Z,99976.16
2023-04-13T10:12:50.763Z,99979.78
2023-04-13T10:16:36.685Z,99983.06
2023-04-13T10:19:44.716Z,99981.47
2023-04-13T10:22:48.479Z,99982.84
2023-04-13T10:25:53.127Z,99990.81
2023-04-13T10:28:57.030Z,99977.19
2023-04-13T10:32:03.832Z,99981.47
2023-04-13T10:35:12.779Z,99985.28
2023-04-13T10:38:16.068Z,99982.38
2023-04-13T10:41:25.955Z,99987.91
2023-04-13T10:44:29.522Z,99989.41
2023-04-13T10:47:38.026Z,99991.97
2023-04-13T10:50:42.441Z,99984.72
2023-04-13T10:53:45.858Z,99990.09
2023-04-13T10:56:58.061Z,100000.81
2023-04-13T11:00:01.559Z,100000.25
2023-04-13T11:03:06.598Z,100003.41
2023-04-13T11:06:11.327Z,100003.41
2023-04-13T11:09:17.164Z,100010.88
2023-04-13T11:12:20.934Z,100017.72
2023-04-13T11:15:25.842Z,100019.81
2023-04-13T11:18:29.091Z,100016.38
2023-04-13T11:21:35.254Z,100012.78
2023-04-13T11:24:38.198Z,100019.34
2023-04-13T11:27:41.574Z,100018.66
2023-04-13T11:30:53.459Z,100023.50
2023-04-13T11:33:57.189Z,100022.94
2023-04-13T11:37:05.499Z,100019.50
2023-04-13T11:40:12.923Z,100021.44
2023-04-13T11:43:17.286Z,100027.38
2023-04-13T11:46:25.719Z,100028.06
2023-04-13T11:49:29.008Z,100026.97
2023-04-13T11:52:33.725Z,100022.00
2023-04-13T11:55:50.065Z,100027.91
2023-04-13T11:58:57.032Z,100025.97
2023-04-13T12:02:08.276Z,100022.22
2023-04-13T12:05:24.388Z,100023.94
2023-04-13T12:08:30.494Z,100026.72
2023-04-13T12:11:42.151Z,100024.81
2023-04-13T12:15:12.669Z,100027.03
2023-04-13T12:21:23.812Z,100037.47
2023-04-13T12:24:39.269Z,100029.09
2023-04-13T12:27:42.876Z,100030.94
2023-04-13T12:30:47.581Z,100028.78
2023-04-13T12:33:53.822Z,100028.13
2023-04-13T12:36:57.973Z,100032.34
2023-04-13T12:40:02.377Z,100025.63
2023-04-13T12:43:05.578Z,100026.16
2023-04-13T12:46:08.579Z,100030.69
2023-04-13T12:49:11.556Z,100037.03
2023-04-13T12:52:15.456Z,100024.81
2023-04-13T12:55:19.832Z,100029.31
2023-04-13T12:58:22.786Z,100026.41
2023-04-13T13:01:26.356Z,100025.91
2023-04-13T13:04:30.632Z,100028.56
2023-04-13T13:07:33.657Z,100033.13
2023-04-13T13:10:38.643Z,100025.09
2023-04-13T13:13:43.615Z,100018.13
2023-04-13T13:16:47.171Z,100025.44
2023-04-13T13:19:54.774Z,100028.28
2023-04-13T13:22:58.233Z,100027.06
2023-04-13T13:26:22.216Z,100019.59
2023-04-13T13:29:27.999Z,100018.66
2023-04-13T13:32:31.376Z,100014.03
2023-04-13T13:35:35.864Z,100022.16
2023-04-13T13:38:39.410Z,100029.03
2023-04-13T13:41:43.736Z,100028.56
2023-04-13T13:44:46.971Z,100024.44
2023-04-13T13:47:54.046Z,100030.72
2023-04-13T13:51:06.884Z,100028.06
2023-04-13T13:54:11.045Z,100028.59
2023-04-13T13:57:15.453Z,100026.97
2023-04-13T14:00:19.883Z,100026.53
2023-04-13T14:03:23.876Z,100030.25
2023-04-13T14:06:31.645Z,100021.81
2023-04-13T14:09:39.167Z,100036.16
2023-04-13T14:12:49.599Z,100043.25
2023-04-13T14:15:53.588Z,100041.38
2023-04-13T14:18:56.582Z,100053.59
2023-04-13T14:21:59.646Z,100042.91
2023-04-13T14:25:04.337Z,100047.53
2023-04-13T14:28:09.330Z,100047.88
2023-04-13T14:31:14.641Z,100053.06
2023-04-13T14:34:19.204Z,100046.56
2023-04-13T14:37:23.278Z,100050.13
2023-04-13T14:40:28.471Z,100066.13
2023-04-13T14:43:32.926Z,100058.44
2023-04-13T14:46:36.423Z,100061.38
2023-04-13T14:49:39.435Z,100050.41
2023-04-13T14:52:47.621Z,100048.47
2023-04-13T14:55:50.915Z,100054.97
2023-04-13T14:58:55.336Z,100056.91
2023-04-13T15:01:58.533Z,100071.56
2023-04-13T15:05:02.833Z,100070.88
2023-04-13T15:08:07.175Z,100070.81
2023-04-13T15:11:10.368Z,100061.59
2023-04-13T15:14:14.789Z,100060.91
2023-04-13T15:17:17.957Z,100074.88
2023-04-13T15:20:21.264Z,100081.78
2023-04-13T15:23:27.442Z,100093.91
2023-04-13T15:26:31.060Z,100101.00
2023-04-13T15:29:35.917Z,100098.09
2023-04-13T15:32:40.846Z,100099.16
2023-04-13T15:35:43.986Z,100093.38
2023-04-13T15:39:32.791Z,100100.50
2023-04-13T15:42:36.193Z,100098.53
2023-04-13T15:45:43.566Z,100095.50
2023-04-13T15:48:52.458Z,100108.50
2023-04-13T15:51:55.696Z,100105.50
2023-04-13T15:54:58.730Z,100120.84
2023-04-13T15:58:03.678Z,100125.22
2023-04-13T16:01:10.098Z,100121.53
2023-04-13T16:04:13.317Z,100129.47
2023-04-13T16:07:16.337Z,100133.38
2023-04-13T16:10:19.622Z,100137.34
2023-04-13T16:13:22.990Z,100128.56
2023-04-13T16:16:27.980Z,100132.00
2023-04-13T16:19:32.655Z,100129.66
2023-04-13T16:22:37.508Z,100133.75
2023-04-13T16:25:40.580Z,100131.19
2023-04-13T16:28:44.699Z,100134.41
2023-04-13T16:31:49.111Z,100132.69
2023-04-13T16:34:53.624Z,100141.53
2023-04-13T16:37:59.728Z,100145.06
2023-04-13T16:41:03.107Z,100150.03
2023-04-13T16:44:08.291Z,100155.88
2023-04-13T16:47:12.659Z,100158.31
2023-04-13T16:50:16.387Z,100159.03
2023-04-13T16:53:19.594Z,100157.81
2023-04-13T16:56:25.360Z,100168.28
2023-04-13T16:59:28.309Z,100159.47
2023-04-13T17:02:32.856Z,100165.81
2023-04-13T17:05:35.935Z,100171.31
2023-04-13T17:08:38.937Z,100170.53
2023-04-13T17:11:42.191Z,100184.34
2023-04-13T17:14:46.533Z,100185.75
2023-04-13T17:17:51.085Z,100178.16
2023-04-13T17:20:55.660Z,100186.59
2023-04-13T17:23:58.650Z,100187.69
2023-04-13T17:27:01.766Z,100188.69
2023-04-13T17:30:07.660Z,100194.63
2023-04-13T17:33:12.304Z,100184.97
2023-04-13T17:36:15.521Z,100189.41
2023-04-13T17:39:20.057Z,100187.25
2023-04-13T17:42:23.819Z,100189.44
2023-04-13T17:45:27.411Z,100189.88
2023-04-13T17:48:31.769Z,100202.06
2023-04-13T17:51:35.239Z,100201.50
2023-04-13T17:54:40.749Z,100192.13
2023-04-13T17:57:44.064Z,100204.22
2023-04-13T18:00:47.387Z,100207.47
2023-04-13T18:03:52.153Z,100203.03
2023-04-13T18:06:56.983Z,100207.38
2023-04-13T18:10:00.540Z,100199.06
2023-04-13T18:13:04.080Z,100207.19
2023-04-13T18:16:10.649Z,100210.31
2023-04-13T18:19:16.909Z,100215.34
2023-04-13T18:22:21.663Z,100218.72
2023-04-13T18:25:26.298Z,100223.63
2023-04-13T18:28:31.641Z,100218.84
2023-04-13T18:32:00.784Z,100212.44
2023-04-13T18:35:12.353Z,100228.34
2023-04-13T18:38:15.417Z,100237.34
2023-04-13T18:41:18.455Z,100249.34
2023-04-13T18:44:21.527Z,100241.94
2023-04-13T18:47:25.746Z,100244.16
2023-04-13T18:50:30.577Z,100254.13
2023-04-13T18:53:33.532Z,100263.25
2023-04-13T18:56:36.832Z,100280.19
2023-04-13T19:03:34.226Z,100290.13
2023-04-13T19:06:38.833Z,100302.78
2023-04-13T19:09:42.165Z,100311.88
2023-04-13T19:12:47.539Z,100321.59
2023-04-13T19:15:50.938Z,100333.53
2023-04-13T19:18:54.010Z,100344.56
2023-04-13T19:21:58.591Z,100337.78
2023-04-13T19:25:01.734Z,100338.03
2023-04-13T19:28:06.096Z,100347.34
2023-04-13T19:31:09.427Z,100350.78
2023-04-13T19:34:13.281Z,100354.31
2023-04-13T19:37:17.825Z,100358.47
2023-04-13T19:40:23.011Z,100367.75
2023-04-13T19:43:28.046Z,100370.19
2023-04-13T19:46:32.662Z,100369.31
2023-04-13T19:49:35.987Z,100373.31
2023-04-13T19:52:42.226Z,100373.72
2023-04-13T19:55:45.579Z,100381.00
2023-04-13T19:58:48.513Z,100377.47
2023-04-13T20:01:53.524Z,100377.69
2023-04-13T20:04:57.211Z,100382.72
2023-04-13T20:08:01.751Z,100388.25
2023-04-13T20:11:04.935Z,100373.53
2023-04-13T20:14:08.198Z,100381.25
2023-04-13T20:17:11.189Z,100383.53
2023-04-13T20:20:17.848Z,100381.03
2023-04-13T20:23:22.306Z,100375.09
2023-04-13T20:26:28.049Z,100374.50
2023-04-13T20:29:31.360Z,100366.81
2023-04-13T20:32:34.334Z,100357.25
2023-04-13T20:35:37.656Z,100350.81
2023-04-13T20:38:42.902Z,100352.91
2023-04-13T20:41:55.035Z,100349.59
2023-04-13T20:44:58.547Z,100356.75
2023-04-13T20:51:26.016Z,100334.47
2023-04-13T20:54:30.735Z,100336.81
2023-04-13T20:57:33.798Z,100329.34
2023-04-13T21:00:36.795Z,100336.41
2023-04-13T21:03:40.056Z,100331.44
2023-04-13T21:06:44.986Z,100332.06
2023-04-13T21:09:49.371Z,100340.06
2023-04-13T21:12:55.148Z,100337.69
2023-04-13T21:15:58.155Z,100343.28
2023-04-13T21:19:01.160Z,100336.09
2023-04-13T21:22:06.478Z,100337.81
2023-04-13T21:25:13.172Z,100331.91
2023-04-13T21:28:21.030Z,100333.56
2023-04-13T21:31:24.210Z,100341.44
2023-04-13T21:34:27.902Z,100327.75
2023-04-13T21:37:30.923Z,100319.25
2023-04-13T21:40:36.885Z,100315.09
2023-04-13T21:43:42.586Z,100318.81
2023-04-13T21:46:45.858Z,100319.00
2023-04-13T21:49:48.819Z,100316.75
2023-04-13T21:52:51.851Z,100310.91
2023-04-13T21:55:56.429Z,100316.41
2023-04-13T21:59:02.853Z,100322.72
2023-04-13T22:02:06.011Z,100327.47
2023-04-13T22:05:09.647Z,100321.66
2023-04-13T22:08:13.160Z,100332.94
2023-04-13T22:11:17.974Z,100338.44
2023-04-13T22:14:24.064Z,100349.19
2023-04-13T22:17:27.172Z,100350.34
2023-04-13T22:20:30.362Z,100352.16
2023-04-13T22:23:33.341Z,100343.13
2023-04-13T22:26:37.754Z,100358.56
2023-04-13T22:29:42.273Z,100357.97
2023-04-13T22:32:45.426Z,100362.22
2023-04-13T22:35:50.594Z,100366.44
2023-04-13T22:38:54.705Z,100359.63
2023-04-13T22:42:00.069Z,100356.81
2023-04-13T22:45:03.298Z,100362.22
2023-04-13T22:48:09.793Z,100351.63
2023-04-13T22:51:12.828Z,100353.50
2023-04-13T22:54:15.943Z,100351.09
2023-04-13T22:57:20.287Z,100343.53
2023-04-13T23:00:23.687Z,100338.53
2023-04-13T23:03:27.467Z,100343.91
2023-04-13T23:06:30.993Z,100342.03
2023-04-13T23:09:34.555Z,100344.47
2023-04-13T23:12:38.887Z,100343.69
2023-04-13T23:15:41.881Z,100341.22
2023-04-13T23:18:44.846Z,100335.94
2023-04-13T23:21:47.951Z,100325.25
2023-04-13T23:24:51.071Z,100318.59
2023-04-13T23:27:55.648Z,100313.22
2023-04-13T23:31:04.904Z,100316.13
2023-04-13T23:34:08.216Z,100311.78
2023-04-13T23:37:11.339Z,100303.72
2023-04-13T23:40:14.522Z,100306.97
2023-04-13T23:43:19.208Z,100306.84
2023-04-13T23:46:25.328Z,100314.44
2023-04-13T23:49:28.291Z,100311.63
2023-04-13T23:52:31.282Z,100316.03
2023-04-13T23:55:34.701Z,100316.28
2023-04-13T23:58:39.012Z,100307.69
